Sunshine State — WDE4432 — position and weather

sailwx.info

Track history (hours):
 
Tides and Currents Weather Stations Pressure Air Temp Water Temp Dewpoint Dewpoint Depression Visibility Wind Speed Wind Dir Waves Ship Positions

Sunshine State

Owner: Crowley Petroleum Services, Jacksonville, FL. More information available from US FCC via Universal Licensing System and Coast Guard Vessel Documentation Center.

Last reported at 2018-May-25 18:30 UTC. Time now 2018-May-25 18:46 UTC.
Position N 29°45' W 095°10'.

Length 183 m; draft 10 m.

Type: Ship (hazmat cat A). MMSI: 367353000.

Date/timePositionNaut miles runAvg speedWind from/ knotsBaromVisibWave heightAir tempDewpointWater temp
2018-May-25 18:30N 29°45' W 095°10'1 2.1
2018-May-25 18:00N 29°45' W 095°11'0 0.0
2018-May-25 17:30N 29°45' W 095°11'0 0.0
2018-May-25 17:00N 29°45' W 095°11'0 0.0
2018-May-25 16:31N 29°45' W 095°11'0 0.0
2018-May-25 16:00N 29°45' W 095°11'0 0.0
2018-May-25 15:30N 29°45' W 095°11'0 0.0
2018-May-25 15:00N 29°45' W 095°11'0 0.0
2018-May-25 14:31N 29°45' W 095°11'0 0.0
2018-May-25 14:00N 29°45' W 095°11'  
2018-May-22 00:00N 29°45' W 095°11'1 2.0
2018-May-21 23:30N 29°45' W 095°10'3 5.2
2018-May-21 23:00N 29°44' W 095°07'3 5.7
2018-May-21 22:30N 29°46' W 095°04'4 7.3
2018-May-21 22:00N 29°43' W 095°01'5 9.4
2018-May-21 21:30N 29°39' W 094°58'612.0
2018-May-21 21:00N 29°34' W 094°55'713.3
2018-May-21 20:30N 29°28' W 094°51'713.9
2018-May-21 20:00N 29°22' W 094°48'713.4
2018-May-21 19:30N 29°20' W 094°41'612.2
2018-May-21 19:00N 29°17' W 094°34'2 1.1
2018-May-21 17:15N 29°17' W 094°32'0 0.0
2018-May-21 12:00N 29°17' W 094°32'1 1.8
2018-May-21 11:30N 29°16' W 094°33'3 6.6
2018-May-21 11:00N 29°14' W 094°30'40413.9
2018-May-20 06:00N 26°48' W 087°24'30812.8 090 / 121015.010.8 22.8
2018-May-19 06:00N 24°12' W 082°30'15610.5 090 / 101013.510.8 25.6
2018-May-18 15:09N 25°29' W 080°01'210.4
2018-May-18 15:00N 25°31' W 080°00'510.4
2018-May-18 14:30N 25°36' W 079°60'611.4
2018-May-18 14:00N 25°42' W 080°01'612.1
2018-May-18 13:30N 25°48' W 080°01'612.6
2018-May-18 13:00N 25°54' W 080°00'713.3
2018-May-18 12:31N 26°00' W 079°60'713.0
2018-May-18 12:00N 26°07' W 079°59'713.1
2018-May-18 11:31N 26°13' W 079°59'713.1
2018-May-18 11:00N 26°20' W 079°59'612.9
2018-May-18 10:30N 26°26' W 079°58'612.2
2018-May-18 10:00N 26°33' W 079°57'611.6
2018-May-18 09:30N 26°38' W 079°57'811.3
2018-May-18 08:45N 26°47' W 079°56'311.1
2018-May-18 08:30N 26°49' W 079°55'510.9
2018-May-18 08:00N 26°55' W 079°55'510.5
2018-May-18 07:30N 27°00' W 079°55'510.2
2018-May-18 07:00N 27°05' W 079°56'  
Track history (hours):
 
Tides and Currents Weather Stations Pressure Air Temp Water Temp Dewpoint Dewpoint Depression Visibility Wind Speed Wind Dir Waves Ship Positions

Sunshine State

Owner: Crowley Petroleum Services, Jacksonville, FL. More information available from US FCC via Universal Licensing System and Coast Guard Vessel Documentation Center.

Last reported at 2018-May-25 18:30 UTC. Time now 2018-May-25 18:46 UTC.
Position N 29°45' W 095°10'.

Length 183 m; draft 10 m.

Type: Ship (hazmat cat A). MMSI: 367353000.

Date/timePositionNaut miles runAvg speedWind from/ knotsBaromVisibWave heightAir tempDewpointWater temp
2018-May-25 18:30N 29°45' W 095°10'1 2.1
2018-May-25 18:00N 29°45' W 095°11'0 0.0
2018-May-25 17:30N 29°45' W 095°11'0 0.0
2018-May-25 17:00N 29°45' W 095°11'0 0.0
2018-May-25 16:31N 29°45' W 095°11'0 0.0
2018-May-25 16:00N 29°45' W 095°11'0 0.0
2018-May-25 15:30N 29°45' W 095°11'0 0.0
2018-May-25 15:00N 29°45' W 095°11'0 0.0
2018-May-25 14:31N 29°45' W 095°11'0 0.0
2018-May-25 14:00N 29°45' W 095°11'  
2018-May-22 00:00N 29°45' W 095°11'1 2.0
2018-May-21 23:30N 29°45' W 095°10'3 5.2
2018-May-21 23:00N 29°44' W 095°07'3 5.7
2018-May-21 22:30N 29°46' W 095°04'4 7.3
2018-May-21 22:00N 29°43' W 095°01'5 9.4
2018-May-21 21:30N 29°39' W 094°58'612.0
2018-May-21 21:00N 29°34' W 094°55'713.3
2018-May-21 20:30N 29°28' W 094°51'713.9
2018-May-21 20:00N 29°22' W 094°48'713.4
2018-May-21 19:30N 29°20' W 094°41'612.2
2018-May-21 19:00N 29°17' W 094°34'2 1.1
2018-May-21 17:15N 29°17' W 094°32'0 0.0
2018-May-21 12:00N 29°17' W 094°32'1 1.8
2018-May-21 11:30N 29°16' W 094°33'3 6.6
2018-May-21 11:00N 29°14' W 094°30'40413.9
2018-May-20 06:00N 26°48' W 087°24'30812.8 090 / 121015.010.8 22.8
2018-May-19 06:00N 24°12' W 082°30'15610.5 090 / 101013.510.8 25.6
2018-May-18 15:09N 25°29' W 080°01'210.4
2018-May-18 15:00N 25°31' W 080°00'510.4
2018-May-18 14:30N 25°36' W 079°60'611.4
2018-May-18 14:00N 25°42' W 080°01'612.1
2018-May-18 13:30N 25°48' W 080°01'612.6
2018-May-18 13:00N 25°54' W 080°00'713.3
2018-May-18 12:31N 26°00' W 079°60'713.0
2018-May-18 12:00N 26°07' W 079°59'713.1
2018-May-18 11:31N 26°13' W 079°59'713.1
2018-May-18 11:00N 26°20' W 079°59'612.9
2018-May-18 10:30N 26°26' W 079°58'612.2
2018-May-18 10:00N 26°33' W 079°57'611.6
2018-May-18 09:30N 26°38' W 079°57'811.3
2018-May-18 08:45N 26°47' W 079°56'311.1
2018-May-18 08:30N 26°49' W 079°55'510.9
2018-May-18 08:00N 26°55' W 079°55'510.5
2018-May-18 07:30N 27°00' W 079°55'510.2
2018-May-18 07:00N 27°05' W 079°56'  

Dump ship's entire track history